Dunnegan, Missouri
Current Conditions -  °F | °C
As of 6:52 AM on Thursday 30 Oct 2014 (Local Time) from KSGF Reporting Station
Clear Clear  
Wind Chill: 39°   Ceiling: Unl
Heat Index: 45°   Visibility: 10mi
Dew Point: 35°   Wind: 12mph
Humidity: 68%   Direction: 160°SSE
Pressure: 30.1"   Gusts: NA
Location:  37.71°N, 93.58°W
Report Text: KSGF 301152Z 16010KT 10SM CLR 07/02 A3010 RMK AO2 SLP191 T00720017 10072 20061 56004
Loading
Personal Weather Stations






























Interactive Weather Map
Tropical Storm Tracking
New forecast layout! Learn more

10-Day Weather Forecast

Advertisements
Track Severe Weather on mobile